createdAt,value
2017-04-28T00:00:24.696Z,1010.83
2017-04-28T00:01:34.653Z,1010.8
2017-04-28T00:02:44.600Z,1010.81
2017-04-28T00:03:54.246Z,1010.74
2017-04-28T00:05:04.190Z,1010.76
2017-04-28T00:06:13.188Z,1010.75
2017-04-28T00:07:22.846Z,1010.77
2017-04-28T00:08:32.789Z,1010.8
2017-04-28T00:09:43.077Z,1010.79
2017-04-28T00:10:53.339Z,1010.77
2017-04-28T00:12:03.285Z,1010.73
2017-04-28T00:13:13.236Z,1010.72
2017-04-28T00:14:23.185Z,1010.73
2017-04-28T00:15:33.146Z,1010.71
2017-04-28T00:16:43.406Z,1010.72
2017-04-28T00:17:53.664Z,1010.69
2017-04-28T00:19:03.933Z,1010.71
2017-04-28T00:20:14.214Z,1010.71
2017-04-28T00:21:24.477Z,1010.69
2017-04-28T00:22:34.741Z,1010.69
2017-04-28T00:23:45.001Z,1010.67
2017-04-28T00:24:55.266Z,1010.68
2017-04-28T00:26:05.526Z,1010.7
2017-04-28T00:27:15.475Z,1010.66
2017-04-28T00:28:25.418Z,1010.67
2017-04-28T00:29:35.684Z,1010.68
2017-04-28T00:30:45.354Z,1010.65
2017-04-28T00:31:55.613Z,1010.65
2017-04-28T00:33:05.892Z,1010.65
2017-04-28T00:34:15.210Z,1010.65
2017-04-28T00:35:25.471Z,1010.64
2017-04-28T00:36:35.726Z,1010.66
2017-04-28T00:37:45.674Z,1010.66
2017-04-28T00:38:55.622Z,1010.64
2017-04-28T00:40:05.886Z,1010.65
2017-04-28T00:41:16.148Z,1010.69
2017-04-28T00:42:26.099Z,1010.66
2017-04-28T00:43:36.353Z,1010.65
2017-04-28T00:44:46.619Z,1010.64
2017-04-28T00:45:56.897Z,1010.66
2017-04-28T00:47:07.160Z,1010.69
2017-04-28T00:48:17.420Z,1010.68
2017-04-28T00:49:27.693Z,1010.7
2017-04-28T00:50:37.637Z,1010.72
2017-04-28T00:51:47.890Z,1010.73
2017-04-28T00:52:57.836Z,1010.74
2017-04-28T00:54:08.099Z,1010.71
2017-04-28T00:55:18.048Z,1010.68
2017-04-28T00:56:27.673Z,1010.67
2017-04-28T00:57:37.931Z,1010.66
2017-04-28T00:58:47.881Z,1010.67
2017-04-28T00:59:58.147Z,1010.67
2017-04-28T01:01:07.779Z,1010.67
2017-04-28T01:02:17.102Z,1010.66
2017-04-28T01:03:27.051Z,1010.66
2017-04-28T01:04:37.313Z,1010.69
2017-04-28T01:05:47.571Z,1010.68
2017-04-28T01:06:57.828Z,1010.66
2017-04-28T01:08:08.095Z,1010.66
2017-04-28T01:09:18.353Z,1010.65
2017-04-28T01:10:28.308Z,1010.65
2017-04-28T01:11:38.255Z,1010.62
2017-04-28T01:12:48.207Z,1010.6
2017-04-28T01:13:58.488Z,1010.62
2017-04-28T01:15:08.432Z,1010.65
2017-04-28T01:16:18.692Z,1010.64
2017-04-28T01:17:28.327Z,1010.62
2017-04-28T01:18:37.964Z,1010.63
2017-04-28T01:19:47.909Z,1010.62
2017-04-28T01:20:57.851Z,1010.6
2017-04-28T01:22:07.797Z,1010.57
2017-04-28T01:23:17.430Z,1010.6
2017-04-28T01:24:27.715Z,1010.62
2017-04-28T01:25:37.973Z,1010.61
2017-04-28T01:26:48.222Z,1010.6
2017-04-28T01:27:58.475Z,1010.62
2017-04-28T01:29:08.739Z,1010.58
2017-04-28T01:30:18.680Z,1010.59
2017-04-28T01:31:28.940Z,1010.61
2017-04-28T01:32:38.879Z,1010.6
2017-04-28T01:33:49.142Z,1010.61
2017-04-28T01:34:59.128Z,1010.59
2017-04-28T01:36:09.074Z,1010.61
2017-04-28T01:37:19.017Z,1010.61
2017-04-28T01:38:29.307Z,1010.63
2017-04-28T01:39:39.583Z,1010.59
2017-04-28T01:40:49.529Z,1010.62
2017-04-28T01:41:59.784Z,1010.6
2017-04-28T01:43:09.724Z,1010.62
2017-04-28T01:44:19.682Z,1010.6
2017-04-28T01:45:29.966Z,1010.62
2017-04-28T01:46:40.235Z,1010.62
2017-04-28T01:47:50.491Z,1010.58
2017-04-28T01:49:00.747Z,1010.62
2017-04-28T01:50:11.001Z,1010.56
2017-04-28T01:51:21.263Z,1010.56
2017-04-28T01:52:31.213Z,1010.55
2017-04-28T01:53:41.181Z,1010.51
2017-04-28T01:54:51.437Z,1010.46
2017-04-28T01:56:01.700Z,1010.48
2017-04-28T01:57:11.964Z,1010.51
2017-04-28T01:58:22.225Z,1010.53
2017-04-28T01:59:32.168Z,1010.54
2017-04-28T02:00:42.118Z,1010.56
2017-04-28T02:01:52.386Z,1010.58
2017-04-28T02:03:02.636Z,1010.54
2017-04-28T02:04:12.270Z,1010.55
2017-04-28T02:05:22.536Z,1010.5
2017-04-28T02:06:32.169Z,1010.48
2017-04-28T02:07:42.426Z,1010.47
2017-04-28T02:08:52.687Z,1010.5
2017-04-28T02:10:02.661Z,1010.49
2017-04-28T02:11:12.600Z,1010.48
2017-04-28T02:12:22.536Z,1010.48
2017-04-28T02:13:31.856Z,1010.53
2017-04-28T02:14:42.123Z,1010.52
2017-04-28T02:15:52.382Z,1010.49
2017-04-28T02:17:02.330Z,1010.49
2017-04-28T02:18:12.276Z,1010.45
2017-04-28T02:19:22.222Z,1010.43
2017-04-28T02:20:32.173Z,1010.46
2017-04-28T02:21:42.431Z,1010.42
2017-04-28T02:22:52.376Z,1010.4
2017-04-28T02:24:02.628Z,1010.41
2017-04-28T02:25:12.262Z,1010.36
2017-04-28T02:26:22.521Z,1010.38
2017-04-28T02:27:32.783Z,1010.38
2017-04-28T02:28:42.722Z,1010.36
2017-04-28T02:29:52.665Z,1010.34
2017-04-28T02:31:02.306Z,1010.29
2017-04-28T02:32:12.248Z,1010.29
2017-04-28T02:33:22.201Z,1010.25
2017-04-28T02:34:31.523Z,1010.26
2017-04-28T02:35:41.469Z,1010.27
2017-04-28T02:36:51.428Z,1010.22
2017-04-28T02:38:01.060Z,1010.24
2017-04-28T02:39:11.002Z,1010.23
2017-04-28T02:40:21.266Z,1010.21
2017-04-28T02:41:31.529Z,1010.22
2017-04-28T02:42:41.824Z,1010.19
2017-04-28T02:43:51.458Z,1010.15
2017-04-28T02:45:01.718Z,1010.15
2017-04-28T02:46:11.354Z,1010.17
2017-04-28T02:47:21.614Z,1010.15
2017-04-28T02:48:31.555Z,1010.17
2017-04-28T02:49:41.528Z,1010.15
2017-04-28T02:50:51.160Z,1010.15
2017-04-28T02:52:01.107Z,1010.15
2017-04-28T02:53:10.730Z,1010.18
2017-04-28T02:54:20.993Z,1010.16
2017-04-28T02:55:31.247Z,1010.2
2017-04-28T02:56:41.507Z,1010.19
2017-04-28T02:57:51.450Z,1010.21
2017-04-28T02:59:01.089Z,1010.23
2017-04-28T03:00:11.031Z,1010.21
2017-04-28T03:01:20.984Z,1010.21
2017-04-28T03:02:30.935Z,1010.21
2017-04-28T03:03:40.568Z,1010.22
2017-04-28T03:04:50.858Z,1010.2
2017-04-28T03:06:00.802Z,1010.22
2017-04-28T03:07:10.433Z,1010.2
2017-04-28T03:08:20.064Z,1010.22
2017-04-28T03:09:30.330Z,1010.2
2017-04-28T03:10:40.591Z,1010.2
2017-04-28T03:11:50.851Z,1010.15
2017-04-28T03:13:00.831Z,1010.15
2017-04-28T03:14:11.098Z,1010.16
2017-04-28T03:15:21.364Z,1010.1
2017-04-28T03:16:31.622Z,1010.09
2017-04-28T03:17:41.877Z,1010.09
2017-04-28T03:18:52.140Z,1010.07
2017-04-28T03:20:02.398Z,1010.06
2017-04-28T03:21:12.350Z,1010.07
2017-04-28T03:22:22.606Z,1010.01
2017-04-28T03:23:32.563Z,1010.03
2017-04-28T03:24:42.517Z,1009.99
2017-04-28T03:25:52.774Z,1009.99
2017-04-28T03:27:03.038Z,1010.02
2017-04-28T03:28:13.303Z,1009.98
2017-04-28T03:29:23.561Z,1010
2017-04-28T03:30:33.511Z,1009.98
2017-04-28T03:31:43.454Z,1010
2017-04-28T03:32:53.710Z,1010.01
2017-04-28T03:34:03.977Z,1010
2017-04-28T03:35:13.607Z,1010.02
2017-04-28T03:36:23.552Z,1010.02
2017-04-28T03:37:33.816Z,1010.05
2017-04-28T03:38:43.762Z,1010.08
2017-04-28T03:39:53.714Z,1010.04
2017-04-28T03:41:03.658Z,1010.01
2017-04-28T03:42:13.918Z,1010.01
2017-04-28T03:43:24.180Z,1010.01
2017-04-28T03:44:34.138Z,1010.02
2017-04-28T03:45:44.440Z,1010.04
2017-04-28T03:46:54.696Z,1010.05
2017-04-28T03:48:04.671Z,1010.03
2017-04-28T03:49:14.302Z,1010.05
2017-04-28T03:50:24.561Z,1010.02
2017-04-28T03:51:34.824Z,1010.04
2017-04-28T03:52:45.102Z,1010.01
2017-04-28T03:53:55.367Z,1010.01
2017-04-28T03:55:05.322Z,1010.05
2017-04-28T03:56:14.950Z,1010.05
2017-04-28T03:57:25.211Z,1010.04
2017-04-28T03:58:35.155Z,1010
2017-04-28T03:59:45.415Z,1010.04
2017-04-28T04:00:55.370Z,1010.05
2017-04-28T04:02:05.315Z,1010.05
2017-04-28T04:03:15.576Z,1010.05
2017-04-28T04:04:25.838Z,1010.04
2017-04-28T04:05:36.109Z,1010.04
2017-04-28T04:06:46.364Z,1010.02
2017-04-28T04:07:56.627Z,1010.06
2017-04-28T04:09:06.892Z,1010.05
2017-04-28T04:10:17.163Z,1010.06
2017-04-28T04:11:27.423Z,1010.1
2017-04-28T04:12:37.674Z,1010.12
2017-04-28T04:13:47.619Z,1010.13
2017-04-28T04:14:57.562Z,1010.14
2017-04-28T04:16:07.528Z,1010.15
2017-04-28T04:17:17.482Z,1010.11
2017-04-28T04:18:27.114Z,1010.08
2017-04-28T04:19:37.063Z,1010.06
2017-04-28T04:20:47.316Z,1010.07
2017-04-28T04:21:56.951Z,1010.11
2017-04-28T04:23:07.205Z,1010.07
2017-04-28T04:24:17.149Z,1010.08
2017-04-28T04:25:26.786Z,1010.08
2017-04-28T04:26:37.045Z,1010.08
2017-04-28T04:27:47.304Z,1010.05
2017-04-28T04:28:57.571Z,1010.07
2017-04-28T04:30:07.199Z,1010
2017-04-28T04:31:17.457Z,1010.02
2017-04-28T04:32:27.712Z,1010.02
2017-04-28T04:33:37.659Z,1010.08
2017-04-28T04:34:47.918Z,1010.09
2017-04-28T04:35:58.184Z,1010.11
2017-04-28T04:37:08.444Z,1010.08
2017-04-28T04:38:18.392Z,1010.12
2017-04-28T04:39:28.352Z,1010.11
2017-04-28T04:40:38.613Z,1010.11
2017-04-28T04:41:48.866Z,1010.11
2017-04-28T04:42:59.121Z,1010.1
2017-04-28T04:44:09.386Z,1010.12
2017-04-28T04:45:19.336Z,1010.12
2017-04-28T04:46:28.962Z,1010.1
2017-04-28T04:47:38.903Z,1010.14
2017-04-28T04:48:48.862Z,1010.08
2017-04-28T04:49:58.817Z,1010.09
2017-04-28T04:51:08.449Z,1010.07
2017-04-28T04:52:18.704Z,1010.07
2017-04-28T04:53:28.969Z,1010.03
2017-04-28T04:54:38.911Z,1010.03
2017-04-28T04:55:48.857Z,1010
2017-04-28T04:56:59.119Z,1010.02
2017-04-28T04:58:09.378Z,1010.03
2017-04-28T04:59:19.629Z,1010.02
2017-04-28T05:00:29.899Z,1010.03
2017-04-28T05:01:40.222Z,1009.99
2017-04-28T05:02:50.473Z,1010
2017-04-28T05:04:00.741Z,1009.99
2017-04-28T05:05:10.382Z,1009.99
2017-04-28T05:06:20.652Z,1009.95
2017-04-28T05:07:30.909Z,1009.92
2017-04-28T05:08:41.182Z,1009.92
2017-04-28T05:09:51.442Z,1009.92
2017-04-28T05:11:01.389Z,1009.93
2017-04-28T05:12:11.649Z,1009.91
2017-04-28T05:13:21.590Z,1009.92
2017-04-28T05:14:31.841Z,1009.94
2017-04-28T05:15:42.095Z,1009.9
2017-04-28T05:16:52.034Z,1009.9
2017-04-28T05:18:02.293Z,1009.89
2017-04-28T05:19:12.251Z,1009.92
2017-04-28T05:20:22.518Z,1009.89
2017-04-28T05:21:32.777Z,1009.91
2017-04-28T05:22:43.034Z,1009.91
2017-04-28T05:23:52.973Z,1009.87
2017-04-28T05:25:03.238Z,1009.9
2017-04-28T05:26:12.865Z,1009.93
2017-04-28T05:27:23.126Z,1009.91
2017-04-28T05:28:33.397Z,1009.91
2017-04-28T05:29:43.672Z,1009.91
2017-04-28T05:30:53.928Z,1009.87
2017-04-28T05:32:04.183Z,1009.93
2017-04-28T05:33:14.442Z,1009.89
2017-04-28T05:34:24.713Z,1009.9
2017-04-28T05:35:34.970Z,1009.85
2017-04-28T05:36:45.229Z,1009.87
2017-04-28T05:37:55.500Z,1009.85
2017-04-28T05:39:05.763Z,1009.84
2017-04-28T05:40:15.089Z,1009.86
2017-04-28T05:41:25.348Z,1009.85
2017-04-28T05:42:34.981Z,1009.83
2017-04-28T05:43:45.239Z,1009.85
2017-04-28T05:44:55.185Z,1009.84
2017-04-28T05:46:05.443Z,1009.85
2017-04-28T05:47:15.384Z,1009.81
2017-04-28T05:48:25.646Z,1009.82
2017-04-28T05:49:35.908Z,1009.81
2017-04-28T05:50:46.165Z,1009.79
2017-04-28T05:51:56.110Z,1009.83
2017-04-28T05:53:06.062Z,1009.78
2017-04-28T05:54:16.009Z,1009.77
2017-04-28T05:55:26.279Z,1009.8
2017-04-28T05:56:36.217Z,1009.82
2017-04-28T05:57:45.851Z,1009.8
2017-04-28T05:58:56.115Z,1009.79
2017-04-28T06:00:06.372Z,1009.79
2017-04-28T06:01:16.313Z,1009.78
2017-04-28T06:02:26.255Z,1009.79
2017-04-28T06:03:35.885Z,1009.79
2017-04-28T06:04:46.145Z,1009.78
2017-04-28T06:05:56.397Z,1009.81
2017-04-28T06:07:05.707Z,1009.82
2017-04-28T06:08:15.962Z,1009.75
2017-04-28T06:09:26.240Z,1009.82
2017-04-28T06:10:36.198Z,1009.83
2017-04-28T06:11:46.139Z,1009.83
2017-04-28T06:12:55.777Z,1009.86
2017-04-28T06:14:06.046Z,1009.91
2017-04-28T06:15:15.669Z,1009.94
2017-04-28T06:16:25.611Z,1009.96
2017-04-28T06:17:35.554Z,1009.98
2017-04-28T06:18:45.507Z,1009.98
2017-04-28T06:19:55.464Z,1010
2017-04-28T06:21:05.093Z,1010.02
2017-04-28T06:22:15.035Z,1010.06
2017-04-28T06:23:25.292Z,1010.05
2017-04-28T06:24:35.241Z,1010.03
2017-04-28T06:25:45.498Z,1010.04
2017-04-28T06:26:55.440Z,1010.05
2017-04-28T06:28:05.695Z,1010.08
2017-04-28T06:29:15.342Z,1010.06
2017-04-28T06:30:24.989Z,1010.01
2017-04-28T06:31:35.254Z,1010.01
2017-04-28T06:32:45.514Z,1010.06
2017-04-28T06:33:55.465Z,1010.04
2017-04-28T06:35:05.726Z,1010.05
2017-04-28T06:36:15.061Z,1010.03
2017-04-28T06:37:25.328Z,1010.07
2017-04-28T06:38:35.599Z,1010.09
2017-04-28T06:39:45.558Z,1010.07
2017-04-28T06:40:55.543Z,1010.07
2017-04-28T06:42:05.795Z,1010.07
2017-04-28T06:43:15.741Z,1010.08
2017-04-28T06:44:25.689Z,1010.05
2017-04-28T06:45:35.637Z,1010.06
2017-04-28T06:46:45.266Z,1010
2017-04-28T06:47:55.555Z,1010.04
2017-04-28T06:49:05.215Z,1009.99
2017-04-28T06:50:14.852Z,1009.95
2017-04-28T06:51:24.798Z,1009.95
2017-04-28T06:52:34.128Z,1009.95
2017-04-28T06:53:44.081Z,1009.96
2017-04-28T06:54:54.352Z,1009.95
2017-04-28T06:56:04.307Z,1009.94
2017-04-28T06:57:14.561Z,1009.94
2017-04-28T06:58:24.815Z,1009.92
2017-04-28T06:59:34.159Z,1009.9
2017-04-28T07:00:43.472Z,1009.88
2017-04-28T07:01:53.732Z,1009.88
2017-04-28T07:03:03.678Z,1009.89
2017-04-28T07:04:13.930Z,1009.9
2017-04-28T07:05:23.569Z,1009.9
2017-04-28T07:06:33.831Z,1009.88
2017-04-28T07:07:43.778Z,1009.87
2017-04-28T07:08:54.034Z,1009.88
2017-04-28T07:10:04.289Z,1009.88
2017-04-28T07:11:13.290Z,1009.89
2017-04-28T07:12:22.609Z,1009.91
2017-04-28T07:13:32.554Z,1009.9
2017-04-28T07:14:42.506Z,1009.87
2017-04-28T07:15:52.762Z,1009.87
2017-04-28T07:17:02.707Z,1009.85
2017-04-28T07:18:12.652Z,1009.87
2017-04-28T07:19:22.284Z,1009.86
2017-04-28T07:20:31.911Z,1009.88
2017-04-28T07:21:41.545Z,1009.87
2017-04-28T07:22:51.816Z,1009.83
2017-04-28T07:24:01.772Z,1009.83
2017-04-28T07:25:11.720Z,1009.82
2017-04-28T07:26:21.977Z,1009.82
2017-04-28T07:27:31.605Z,1009.81
2017-04-28T07:28:41.898Z,1009.88
2017-04-28T07:29:51.843Z,1009.81
2017-04-28T07:31:01.480Z,1009.85
2017-04-28T07:32:11.733Z,1009.82
2017-04-28T07:33:21.984Z,1009.82
2017-04-28T07:34:31.936Z,1009.84
2017-04-28T07:35:41.569Z,1009.8
2017-04-28T07:36:51.519Z,1009.8
2017-04-28T07:38:01.160Z,1009.8
2017-04-28T07:39:11.107Z,1009.78
2017-04-28T07:40:21.061Z,1009.77
2017-04-28T07:41:31.005Z,1009.76
2017-04-28T07:42:41.262Z,1009.75
2017-04-28T07:43:51.210Z,1009.75
2017-04-28T07:45:01.468Z,1009.74
2017-04-28T07:46:11.416Z,1009.74
2017-04-28T07:47:21.362Z,1009.74
2017-04-28T07:48:31.306Z,1009.68
2017-04-28T07:49:41.560Z,1009.71
2017-04-28T07:50:51.507Z,1009.68
2017-04-28T07:52:01.444Z,1009.67
2017-04-28T07:53:11.076Z,1009.65
2017-04-28T07:54:21.025Z,1009.65
2017-04-28T07:55:30.963Z,1009.65
2017-04-28T07:56:41.215Z,1009.61
2017-04-28T07:57:51.473Z,1009.61
2017-04-28T07:59:01.429Z,1009.64
2017-04-28T08:00:11.371Z,1009.63
2017-04-28T08:01:21.630Z,1009.65
2017-04-28T08:02:31.572Z,1009.63
2017-04-28T08:03:41.836Z,1009.63
2017-04-28T08:04:51.791Z,1009.65
2017-04-28T08:06:02.061Z,1009.67
2017-04-28T08:07:12.319Z,1009.64
2017-04-28T08:08:22.265Z,1009.63
2017-04-28T08:09:32.212Z,1009.61
2017-04-28T08:10:42.467Z,1009.6
2017-04-28T08:11:52.723Z,1009.62
2017-04-28T08:13:02.669Z,1009.63
2017-04-28T08:14:12.927Z,1009.64
2017-04-28T08:15:23.183Z,1009.69
2017-04-28T08:16:33.140Z,1009.66
2017-04-28T08:17:43.398Z,1009.64
2017-04-28T08:18:53.347Z,1009.68
2017-04-28T08:20:03.607Z,1009.63
2017-04-28T08:21:13.246Z,1009.63
2017-04-28T08:22:23.521Z,1009.64
2017-04-28T08:23:33.791Z,1009.64
2017-04-28T08:24:43.768Z,1009.66
2017-04-28T08:25:53.718Z,1009.61
2017-04-28T08:27:03.687Z,1009.59
2017-04-28T08:28:13.948Z,1009.57
2017-04-28T08:29:23.612Z,1009.54
2017-04-28T08:30:33.878Z,1009.49
2017-04-28T08:31:43.829Z,1009.53
2017-04-28T08:32:53.805Z,1009.52
2017-04-28T08:34:04.068Z,1009.47
2017-04-28T08:35:13.405Z,1009.48
2017-04-28T08:36:23.352Z,1009.48
2017-04-28T08:37:33.297Z,1009.46
2017-04-28T08:38:42.635Z,1009.49
2017-04-28T08:39:52.270Z,1009.48
2017-04-28T08:41:02.214Z,1009.5
2017-04-28T08:42:12.465Z,1009.51
2017-04-28T08:43:22.099Z,1009.53
2017-04-28T08:44:32.362Z,1009.49
2017-04-28T08:45:42.616Z,1009.5
2017-04-28T08:46:52.241Z,1009.48
2017-04-28T08:48:02.179Z,1009.47
2017-04-28T08:49:11.810Z,1009.48
2017-04-28T08:50:22.072Z,1009.47
2017-04-28T08:51:32.339Z,1009.45
2017-04-28T08:52:42.603Z,1009.42
2017-04-28T08:53:52.868Z,1009.45
2017-04-28T08:55:02.808Z,1009.4
2017-04-28T08:56:12.753Z,1009.4
2017-04-28T08:57:23.013Z,1009.39
2017-04-28T08:58:32.960Z,1009.37
2017-04-28T08:59:42.902Z,1009.34
2017-04-28T09:00:53.162Z,1009.39
2017-04-28T09:02:03.115Z,1009.37
2017-04-28T09:03:12.431Z,1009.37
2017-04-28T09:04:22.090Z,1009.34
2017-04-28T09:05:32.356Z,1009.33
2017-04-28T09:06:42.615Z,1009.37
2017-04-28T09:07:52.885Z,1009.33
2017-04-28T09:09:03.156Z,1009.35
2017-04-28T09:10:13.100Z,1009.35
2017-04-28T09:11:23.358Z,1009.36
2017-04-28T09:12:33.664Z,1009.35
2017-04-28T09:13:43.919Z,1009.38
2017-04-28T09:14:53.860Z,1009.37
2017-04-28T09:16:04.127Z,1009.37
2017-04-28T09:17:14.079Z,1009.33
2017-04-28T09:18:24.036Z,1009.32
2017-04-28T09:19:33.985Z,1009.35
2017-04-28T09:20:43.934Z,1009.35
2017-04-28T09:21:53.886Z,1009.35
2017-04-28T09:23:03.832Z,1009.33
2017-04-28T09:24:13.783Z,1009.35
2017-04-28T09:25:23.759Z,1009.35
2017-04-28T09:26:33.759Z,1009.37
2017-04-28T09:27:44.016Z,1009.3
2017-04-28T09:28:54.278Z,1009.35
2017-04-28T09:30:04.217Z,1009.33
2017-04-28T09:31:14.161Z,1009.31
2017-04-28T09:32:24.420Z,1009.33
2017-04-28T09:33:34.386Z,1009.32
2017-04-28T09:34:44.674Z,1009.3
2017-04-28T09:35:54.623Z,1009.25
2017-04-28T09:37:04.883Z,1009.27
2017-04-28T09:38:14.830Z,1009.25
2017-04-28T09:39:25.086Z,1009.24
2017-04-28T09:40:35.343Z,1009.22
2017-04-28T09:41:45.301Z,1009.22
2017-04-28T09:42:55.566Z,1009.2
2017-04-28T09:44:05.843Z,1009.2
2017-04-28T09:45:15.512Z,1009.21
2017-04-28T09:46:25.461Z,1009.23
2017-04-28T09:47:35.720Z,1009.22
2017-04-28T09:48:45.674Z,1009.24
2017-04-28T09:49:55.613Z,1009.26
2017-04-28T09:51:05.252Z,1009.28
2017-04-28T09:52:14.881Z,1009.29
2017-04-28T09:53:25.136Z,1009.26
2017-04-28T09:54:35.397Z,1009.26
2017-04-28T09:55:45.690Z,1009.28
2017-04-28T09:56:55.951Z,1009.32
2017-04-28T09:58:05.891Z,1009.3
2017-04-28T09:59:15.520Z,1009.33
2017-04-28T10:00:25.147Z,1009.33
2017-04-28T10:01:35.409Z,1009.3
2017-04-28T10:02:45.040Z,1009.35
2017-04-28T10:03:55.299Z,1009.34
2017-04-28T10:05:05.563Z,1009.31
2017-04-28T10:06:15.541Z,1009.34
2017-04-28T10:07:25.802Z,1009.3
2017-04-28T10:08:35.744Z,1009.3
2017-04-28T10:09:46.001Z,1009.32
2017-04-28T10:10:55.949Z,1009.29
2017-04-28T10:12:05.584Z,1009.3
2017-04-28T10:13:15.532Z,1009.33
2017-04-28T10:14:25.473Z,1009.27
2017-04-28T10:15:35.422Z,1009.31
2017-04-28T10:16:45.678Z,1009.3
2017-04-28T10:17:55.934Z,1009.28
2017-04-28T10:19:06.197Z,1009.26
2017-04-28T10:20:15.839Z,1009.22
2017-04-28T10:21:25.786Z,1009.21
2017-04-28T10:22:36.049Z,1009.18
2017-04-28T10:23:45.681Z,1009.18
2017-04-28T10:24:55.935Z,1009.19
2017-04-28T10:26:06.191Z,1009.23
2017-04-28T10:27:15.823Z,1009.2
2017-04-28T10:28:26.083Z,1009.22
2017-04-28T10:29:35.714Z,1009.19
2017-04-28T10:30:45.981Z,1009.21
2017-04-28T10:31:56.244Z,1009.24
2017-04-28T10:33:06.189Z,1009.19
2017-04-28T10:34:16.445Z,1009.23
2017-04-28T10:35:26.394Z,1009.21
2017-04-28T10:36:36.660Z,1009.15
2017-04-28T10:37:46.920Z,1009.14
2017-04-28T10:38:56.556Z,1009.15
2017-04-28T10:40:05.870Z,1009.15
2017-04-28T10:41:15.491Z,1009.09
2017-04-28T10:42:25.130Z,1009.06
2017-04-28T10:43:35.394Z,1009.07
2017-04-28T10:44:45.341Z,1009.04
2017-04-28T10:45:55.603Z,1009.06
2017-04-28T10:47:05.861Z,1009.08
2017-04-28T10:48:15.511Z,1009.04
2017-04-28T10:49:25.460Z,1009.01
2017-04-28T10:50:35.088Z,1009.02
2017-04-28T10:51:44.728Z,1009.03
2017-04-28T10:52:54.683Z,1009.05
2017-04-28T10:54:04.944Z,1009.01
2017-04-28T10:55:14.892Z,1008.97
2017-04-28T10:56:24.834Z,1008.95
2017-04-28T10:57:35.096Z,1008.95
2017-04-28T10:58:45.106Z,1008.9
2017-04-28T10:59:55.363Z,1008.91
2017-04-28T11:01:05.336Z,1008.88
2017-04-28T11:02:14.967Z,1008.85
2017-04-28T11:03:24.638Z,1008.89
2017-04-28T11:04:34.895Z,1008.86
2017-04-28T11:05:44.851Z,1008.88
2017-04-28T11:06:55.115Z,1008.87
2017-04-28T11:08:05.384Z,1008.83
2017-04-28T11:09:15.027Z,1008.82
2017-04-28T11:10:25.288Z,1008.81
2017-04-28T11:11:34.916Z,1008.77
2017-04-28T11:12:44.855Z,1008.77
2017-04-28T11:13:55.105Z,1008.77
2017-04-28T11:15:05.363Z,1008.77
2017-04-28T11:16:15.341Z,1008.77
2017-04-28T11:17:25.599Z,1008.79
2017-04-28T11:18:34.915Z,1008.75
2017-04-28T11:19:45.179Z,1008.72
2017-04-28T11:20:55.438Z,1008.74
2017-04-28T11:22:05.694Z,1008.68
2017-04-28T11:23:15.956Z,1008.7
2017-04-28T11:24:25.585Z,1008.7
2017-04-28T11:25:35.845Z,1008.69
2017-04-28T11:26:46.112Z,1008.71
2017-04-28T11:27:56.373Z,1008.64
2017-04-28T11:29:06.314Z,1008.61
2017-04-28T11:30:16.571Z,1008.63
2017-04-28T11:31:26.833Z,1008.61
2017-04-28T11:32:36.474Z,1008.57
2017-04-28T11:33:45.470Z,1008.59
2017-04-28T11:34:55.101Z,1008.61
2017-04-28T11:36:05.361Z,1008.6
2017-04-28T11:37:14.993Z,1008.59
2017-04-28T11:38:23.999Z,1008.56
2017-04-28T11:39:34.253Z,1008.54
2017-04-28T11:40:44.517Z,1008.54
2017-04-28T11:41:54.456Z,1008.59
2017-04-28T11:43:04.707Z,1008.57
2017-04-28T11:44:14.651Z,1008.61
2017-04-28T11:45:24.916Z,1008.6
2017-04-28T11:46:34.545Z,1008.59
2017-04-28T11:47:44.400Z,1008.53
2017-04-28T11:48:54.660Z,1008.57
2017-04-28T11:50:04.629Z,1008.51
2017-04-28T11:51:14.903Z,1008.51
2017-04-28T11:52:24.854Z,1008.46
2017-04-28T11:53:34.812Z,1008.47
2017-04-28T11:54:45.067Z,1008.49
2017-04-28T11:55:55.324Z,1008.49
2017-04-28T11:57:05.615Z,1008.5
2017-04-28T11:58:15.873Z,1008.51
2017-04-28T11:59:26.125Z,1008.51
2017-04-28T12:00:35.755Z,1008.5
2017-04-28T12:01:45.384Z,1008.53
2017-04-28T12:02:55.332Z,1008.55
2017-04-28T12:04:05.615Z,1008.52
2017-04-28T12:05:15.559Z,1008.53
2017-04-28T12:06:25.502Z,1008.49
2017-04-28T12:07:35.452Z,1008.54
2017-04-28T12:08:45.711Z,1008.53
2017-04-28T12:09:55.345Z,1008.53
2017-04-28T12:11:05.281Z,1008.62
2017-04-28T12:12:14.904Z,1008.62
2017-04-28T12:13:24.533Z,1008.61
2017-04-28T12:14:34.485Z,1008.62
2017-04-28T12:15:44.430Z,1008.65
2017-04-28T12:16:54.689Z,1008.66
2017-04-28T12:19:16.230Z,1008.74
2017-04-28T12:20:26.491Z,1008.74
2017-04-28T12:21:36.754Z,1008.69
2017-04-28T12:22:47.016Z,1008.78
2017-04-28T12:23:56.965Z,1008.83
2017-04-28T12:25:06.913Z,1008.82
2017-04-28T12:26:17.179Z,1008.8
2017-04-28T12:27:27.444Z,1008.84
2017-04-28T12:28:37.389Z,1008.8
2017-04-28T12:29:47.345Z,1008.84
2017-04-28T12:30:56.982Z,1008.83
2017-04-28T12:32:06.944Z,1008.86
2017-04-28T12:33:17.200Z,1008.92
2017-04-28T12:34:26.839Z,1008.9
2017-04-28T12:35:36.160Z,1008.87
2017-04-28T12:36:46.118Z,1008.84
2017-04-28T12:37:56.075Z,1008.87
2017-04-28T12:39:06.023Z,1008.85
2017-04-28T12:40:15.674Z,1008.85
2017-04-28T12:41:25.627Z,1008.84
2017-04-28T12:42:35.888Z,1008.88
2017-04-28T12:43:45.210Z,1008.86
2017-04-28T12:44:55.169Z,1008.9
2017-04-28T12:46:05.438Z,1008.92
2017-04-28T12:47:15.386Z,1008.91
2017-04-28T12:48:25.647Z,1008.97
2017-04-28T12:49:35.916Z,1008.96
2017-04-28T12:50:46.233Z,1008.95
2017-04-28T12:51:56.493Z,1008.96
2017-04-28T12:53:06.438Z,1008.96
2017-04-28T12:54:16.700Z,1008.97
2017-04-28T12:55:26.650Z,1008.99
2017-04-28T12:56:36.283Z,1009
2017-04-28T12:57:46.248Z,1009
2017-04-28T12:58:56.551Z,1009.01
2017-04-28T13:00:06.825Z,1009.02
2017-04-28T13:01:16.780Z,1009
2017-04-28T13:02:27.044Z,1009.04
2017-04-28T13:03:37.307Z,1009.02
2017-04-28T13:04:47.258Z,1009
2017-04-28T13:05:57.206Z,1009.04
2017-04-28T13:07:07.163Z,1009.1
2017-04-28T13:08:17.109Z,1009.09
2017-04-28T13:09:27.374Z,1009.13
2017-04-28T13:10:37.328Z,1009.15
2017-04-28T13:11:47.279Z,1009.14
2017-04-28T13:12:56.596Z,1009.15
2017-04-28T13:14:06.548Z,1009.15
2017-04-28T13:15:16.507Z,1009.19
2017-04-28T13:16:26.462Z,1009.17
2017-04-28T13:17:36.102Z,1009.23
2017-04-28T13:18:46.372Z,1009.22
2017-04-28T13:19:56.320Z,1009.24
2017-04-28T13:21:06.271Z,1009.23
2017-04-28T13:22:15.933Z,1009.27
2017-04-28T13:23:25.561Z,1009.3
2017-04-28T13:24:35.509Z,1009.34
2017-04-28T13:25:45.770Z,1009.36
2017-04-28T13:26:55.720Z,1009.37
2017-04-28T13:28:05.672Z,1009.4
2017-04-28T13:29:15.626Z,1009.42
2017-04-28T13:30:25.565Z,1009.42
2017-04-28T13:31:35.826Z,1009.44
2017-04-28T13:32:45.771Z,1009.5
2017-04-28T13:33:56.269Z,1009.44
2017-04-28T13:35:06.535Z,1009.41
2017-04-28T13:36:16.482Z,1009.38
2017-04-28T13:37:26.461Z,1009.42
2017-04-28T13:38:36.427Z,1009.35
2017-04-28T13:39:46.689Z,1009.34
2017-04-28T13:40:56.637Z,1009.37
2017-04-28T13:42:06.269Z,1009.39
2017-04-28T13:43:16.529Z,1009.38
2017-04-28T13:44:26.477Z,1009.37
2017-04-28T13:45:36.426Z,1009.37
2017-04-28T13:46:46.694Z,1009.4
2017-04-28T13:47:56.641Z,1009.36
2017-04-28T13:49:06.581Z,1009.42
2017-04-28T13:50:16.849Z,1009.42
2017-04-28T13:51:26.480Z,1009.37
2017-04-28T13:52:36.751Z,1009.38
2017-04-28T13:53:47.034Z,1009.33
2017-04-28T13:54:57.303Z,1009.36
2017-04-28T13:56:07.250Z,1009.33
2017-04-28T13:57:17.219Z,1009.34
2017-04-28T13:58:26.851Z,1009.31
2017-04-28T13:59:37.120Z,1009.35
2017-04-28T14:00:47.071Z,1009.32
2017-04-28T14:01:57.341Z,1009.34
2017-04-28T14:03:07.605Z,1009.31
2017-04-28T14:04:17.550Z,1009.34
2017-04-28T14:05:27.818Z,1009.32
2017-04-28T14:06:37.765Z,1009.32
2017-04-28T14:07:48.060Z,1009.33
2017-04-28T14:08:58.031Z,1009.33
2017-04-28T14:10:07.663Z,1009.31
2017-04-28T14:11:17.616Z,1009.37
2017-04-28T14:12:27.571Z,1009.34